createdAt,value
2023-03-20T00:01:22.540Z,18.50
2023-03-20T00:03:49.741Z,18.50
2023-03-20T00:06:22.145Z,18.50
2023-03-20T00:08:51.765Z,18.40
2023-03-20T00:11:29.151Z,18.40
2023-03-20T00:14:09.203Z,18.40
2023-03-20T00:16:38.969Z,18.30
2023-03-20T00:19:06.793Z,18.30
2023-03-20T00:21:34.222Z,18.30
2023-03-20T00:24:01.842Z,18.30
2023-03-20T00:26:33.059Z,18.20
2023-03-20T00:29:00.984Z,18.20
2023-03-20T00:31:33.496Z,18.20
2023-03-20T00:34:06.484Z,18.20
2023-03-20T00:36:33.595Z,18.20
2023-03-20T00:39:00.455Z,18.20
2023-03-20T00:42:03.368Z,18.10
2023-03-20T00:45:05.198Z,18.10
2023-03-20T00:47:36.142Z,18.00
2023-03-20T00:50:06.464Z,18.00
2023-03-20T00:52:33.947Z,18.00
2023-03-20T00:55:00.671Z,18.00
2023-03-20T00:57:33.487Z,18.00
2023-03-20T01:00:12.588Z,18.00
2023-03-20T01:02:39.509Z,17.90
2023-03-20T01:05:06.725Z,17.90
2023-03-20T01:07:33.867Z,17.90
2023-03-20T01:10:03.338Z,17.90
2023-03-20T01:12:30.269Z,17.80
2023-03-20T01:14:58.612Z,17.80
2023-03-20T01:17:27.908Z,17.80
2023-03-20T01:19:54.859Z,17.80
2023-03-20T01:22:21.800Z,17.80
2023-03-20T01:24:48.595Z,17.80
2023-03-20T01:27:17.969Z,17.80
2023-03-20T01:29:44.919Z,17.70
2023-03-20T01:32:14.185Z,17.70
2023-03-20T01:34:41.904Z,17.70
2023-03-20T01:37:27.403Z,17.70
2023-03-20T01:39:57.864Z,17.70
2023-03-20T01:42:25.575Z,17.70
2023-03-20T01:44:52.905Z,17.70
2023-03-20T01:47:26.123Z,17.60
2023-03-20T01:50:30.061Z,17.60
2023-03-20T01:53:22.508Z,17.60
2023-03-20T01:55:57.537Z,17.60
2023-03-20T01:58:37.277Z,17.60
2023-03-20T02:01:06.283Z,17.60
2023-03-20T02:03:34.059Z,17.50
2023-03-20T02:06:12.855Z,17.50
2023-03-20T02:08:59.991Z,17.50
2023-03-20T02:11:31.567Z,17.50
2023-03-20T02:14:00.602Z,17.50
2023-03-20T02:16:33.261Z,17.50
2023-03-20T02:19:23.780Z,17.50
2023-03-20T02:22:31.077Z,17.50
2023-03-20T02:25:16.527Z,17.50
2023-03-20T02:27:51.635Z,17.40
2023-03-20T02:30:52.740Z,17.40
2023-03-20T02:33:28.481Z,17.40
2023-03-20T02:36:15.497Z,17.40
2023-03-20T02:38:51.735Z,17.40
2023-03-20T02:41:32.643Z,17.40
2023-03-20T02:44:06.784Z,17.30
2023-03-20T02:46:48.899Z,17.30
2023-03-20T02:49:57.992Z,17.30
2023-03-20T02:52:41.293Z,17.30
2023-03-20T02:55:26.731Z,17.20
2023-03-20T02:58:22.543Z,17.20
2023-03-20T03:01:23.522Z,17.20
2023-03-20T03:04:00.917Z,17.20
2023-03-20T03:06:32.668Z,17.20
2023-03-20T03:09:19.910Z,17.20
2023-03-20T03:11:57.343Z,17.20
2023-03-20T03:14:30.813Z,17.20
2023-03-20T03:16:59.618Z,17.20
2023-03-20T03:19:29.471Z,17.10
2023-03-20T03:21:56.338Z,17.10
2023-03-20T03:24:40.705Z,17.10
2023-03-20T03:27:18.206Z,17.10
2023-03-20T03:29:49.113Z,17.10
2023-03-20T03:32:28.434Z,17.10
2023-03-20T03:34:56.306Z,17.10
2023-03-20T03:37:43.540Z,17.10
2023-03-20T03:40:32.707Z,17.10
2023-03-20T03:43:11.529Z,17.00
2023-03-20T03:45:59.237Z,17.00
2023-03-20T03:48:34.898Z,17.00
2023-03-20T03:51:16.582Z,17.00
2023-03-20T03:54:16.590Z,17.00
2023-03-20T03:56:48.956Z,17.00
2023-03-20T03:59:34.230Z,17.00
2023-03-20T04:02:03.661Z,17.00
2023-03-20T04:04:32.494Z,17.00
2023-03-20T04:06:59.301Z,16.90
2023-03-20T04:09:29.058Z,16.90
2023-03-20T04:11:55.946Z,16.90
2023-03-20T04:14:22.724Z,16.90
2023-03-20T04:16:49.644Z,16.90
2023-03-20T04:19:16.859Z,16.90
2023-03-20T04:21:45.928Z,16.90
2023-03-20T04:24:12.794Z,16.90
2023-03-20T04:26:40.463Z,16.90
2023-03-20T04:29:07.911Z,16.90
2023-03-20T04:32:01.418Z,16.80
2023-03-20T04:34:47.808Z,16.80
2023-03-20T04:37:45.297Z,16.80
2023-03-20T04:40:13.192Z,16.80
2023-03-20T04:42:42.599Z,16.80
2023-03-20T04:45:10.079Z,16.70
2023-03-20T04:47:38.556Z,16.70
2023-03-20T04:50:09.599Z,16.70
2023-03-20T04:52:36.773Z,16.70
2023-03-20T04:55:04.264Z,16.70
2023-03-20T04:57:32.034Z,16.70
2023-03-20T04:59:58.956Z,16.70
2023-03-20T05:02:25.668Z,16.70
2023-03-20T05:04:53.339Z,16.70
2023-03-20T05:07:20.153Z,16.70
2023-03-20T05:09:55.424Z,16.70
2023-03-20T05:12:23.712Z,16.60
2023-03-20T05:15:09.181Z,16.60
2023-03-20T05:17:35.871Z,16.60
2023-03-20T05:20:19.419Z,16.60
2023-03-20T05:22:55.925Z,16.60
2023-03-20T05:25:48.572Z,16.50
2023-03-20T05:28:25.922Z,16.50
2023-03-20T05:31:11.030Z,16.50
2023-03-20T05:34:13.398Z,16.60
2023-03-20T05:36:42.938Z,16.60
2023-03-20T05:39:28.122Z,16.50
2023-03-20T05:42:13.578Z,16.50
2023-03-20T05:44:49.508Z,16.50
2023-03-20T05:47:45.453Z,16.50
2023-03-20T05:50:25.724Z,16.50
2023-03-20T05:53:03.565Z,16.50
2023-03-20T05:55:49.255Z,16.50
2023-03-20T05:58:35.299Z,16.40
2023-03-20T06:01:24.811Z,16.40
2023-03-20T06:04:00.527Z,16.50
2023-03-20T06:06:56.409Z,16.40
2023-03-20T06:09:24.062Z,16.40
2023-03-20T06:11:50.903Z,16.40
2023-03-20T06:14:19.099Z,16.40
2023-03-20T06:16:54.078Z,16.40
2023-03-20T06:19:24.572Z,16.40
2023-03-20T06:21:51.485Z,16.40
2023-03-20T06:24:20.804Z,16.30
2023-03-20T06:26:47.681Z,16.30
2023-03-20T06:29:14.546Z,16.40
2023-03-20T06:31:41.424Z,16.30
2023-03-20T06:34:12.633Z,16.30
2023-03-20T06:36:45.503Z,16.30
2023-03-20T06:39:18.512Z,16.30
2023-03-20T06:41:45.771Z,16.30
2023-03-20T06:44:12.927Z,16.30
2023-03-20T06:47:04.704Z,16.30
2023-03-20T06:49:31.759Z,16.30
2023-03-20T06:51:59.342Z,16.20
2023-03-20T06:54:27.090Z,16.20
2023-03-20T06:56:54.900Z,16.20
2023-03-20T06:59:22.043Z,16.20
2023-03-20T07:01:49.377Z,16.20
2023-03-20T07:04:17.286Z,16.20
2023-03-20T07:06:49.259Z,16.20
2023-03-20T07:09:17.684Z,16.20
2023-03-20T07:11:45.063Z,16.20
2023-03-20T07:14:13.235Z,16.20
2023-03-20T07:16:48.979Z,16.20
2023-03-20T07:19:16.471Z,16.20
2023-03-20T07:21:46.675Z,16.10
2023-03-20T07:24:15.257Z,16.10
2023-03-20T07:26:42.005Z,16.10
2023-03-20T07:29:09.710Z,16.20
2023-03-20T07:31:37.613Z,16.10
2023-03-20T07:34:14.374Z,16.10
2023-03-20T07:36:42.050Z,16.10
2023-03-20T07:39:09.935Z,16.10
2023-03-20T07:41:39.064Z,16.10
2023-03-20T07:44:10.410Z,16.10
2023-03-20T07:47:03.249Z,16.10
2023-03-20T07:49:31.094Z,16.10
2023-03-20T07:51:57.800Z,16.10
2023-03-20T07:54:24.678Z,16.10
2023-03-20T07:56:51.788Z,16.10
2023-03-20T07:59:18.891Z,16.10
2023-03-20T08:01:45.912Z,16.00
2023-03-20T08:04:12.784Z,16.10
2023-03-20T08:06:39.532Z,16.10
2023-03-20T08:09:07.120Z,16.00
2023-03-20T08:11:34.480Z,16.00
2023-03-20T08:14:01.702Z,16.00
2023-03-20T08:16:28.653Z,16.00
2023-03-20T08:19:01.041Z,16.00
2023-03-20T08:21:30.032Z,16.00
2023-03-20T08:23:57.369Z,16.00
2023-03-20T08:26:24.563Z,16.00
2023-03-20T08:28:52.563Z,16.00
2023-03-20T08:31:19.565Z,16.00
2023-03-20T08:33:47.131Z,16.00
2023-03-20T08:36:15.587Z,16.00
2023-03-20T08:38:42.956Z,16.00
2023-03-20T08:41:09.712Z,16.00
2023-03-20T08:43:36.664Z,16.00
2023-03-20T08:46:03.919Z,16.00
2023-03-20T08:48:30.926Z,16.00
2023-03-20T08:50:57.682Z,16.00
2023-03-20T08:53:24.455Z,15.90
2023-03-20T08:55:52.261Z,16.00
2023-03-20T08:58:20.437Z,16.00
2023-03-20T09:00:47.599Z,15.90
2023-03-20T09:03:19.972Z,15.90
2023-03-20T09:05:48.227Z,15.90
2023-03-20T09:08:15.277Z,16.00
2023-03-20T09:10:42.546Z,15.90
2023-03-20T09:13:25.696Z,15.90
2023-03-20T09:15:54.870Z,16.00
2023-03-20T09:18:21.904Z,15.90
2023-03-20T09:20:49.266Z,15.90
2023-03-20T09:23:17.414Z,15.90
2023-03-20T09:25:44.559Z,15.90
2023-03-20T09:28:11.341Z,15.90
2023-03-20T09:30:40.663Z,15.90
2023-03-20T09:33:07.513Z,15.90
2023-03-20T09:35:34.300Z,15.90
2023-03-20T09:38:01.372Z,15.90
2023-03-20T09:40:34.033Z,15.90
2023-03-20T09:43:33.526Z,15.90
2023-03-20T09:46:00.190Z,15.90
2023-03-20T09:48:48.587Z,15.90
2023-03-20T09:51:27.050Z,15.90
2023-03-20T09:54:01.168Z,15.90
2023-03-20T09:56:29.851Z,15.90
2023-03-20T09:59:02.714Z,15.90
2023-03-20T10:01:48.528Z,15.90
2023-03-20T10:04:15.643Z,15.90
2023-03-20T10:06:42.670Z,15.90
2023-03-20T10:09:21.278Z,15.80
2023-03-20T10:12:18.188Z,15.90
2023-03-20T10:15:04.352Z,15.80
2023-03-20T10:17:58.248Z,15.80
2023-03-20T10:20:36.191Z,15.80
2023-03-20T10:23:07.409Z,15.90
2023-03-20T10:25:42.468Z,15.80
2023-03-20T10:28:22.324Z,15.80
2023-03-20T10:31:12.919Z,15.80
2023-03-20T10:34:03.499Z,15.80
2023-03-20T10:36:41.846Z,15.80
2023-03-20T10:39:21.075Z,15.80
2023-03-20T10:42:05.234Z,15.80
2023-03-20T10:44:51.054Z,15.80
2023-03-20T10:47:23.206Z,15.80
2023-03-20T10:49:58.506Z,15.80
2023-03-20T10:52:35.728Z,15.80
2023-03-20T10:55:19.019Z,15.80
2023-03-20T10:58:02.841Z,15.80
2023-03-20T11:00:38.611Z,15.80
2023-03-20T11:03:08.167Z,15.80
2023-03-20T11:05:37.039Z,15.80
2023-03-20T11:08:13.825Z,15.80
2023-03-20T11:10:42.539Z,15.80
2023-03-20T11:13:35.689Z,15.80
2023-03-20T11:16:23.112Z,15.80
2023-03-20T11:18:52.325Z,15.70
2023-03-20T11:21:29.111Z,15.80
2023-03-20T11:23:56.056Z,15.70
2023-03-20T11:26:36.721Z,15.70
2023-03-20T11:29:07.771Z,15.70
2023-03-20T11:31:40.659Z,15.70
2023-03-20T11:34:07.496Z,15.70
2023-03-20T11:36:36.689Z,15.80
2023-03-20T11:39:15.693Z,15.70
2023-03-20T11:41:54.946Z,15.70
2023-03-20T11:44:27.890Z,15.70
2023-03-20T11:47:04.257Z,15.70
2023-03-20T11:49:33.154Z,15.70
2023-03-20T11:52:11.312Z,15.70
2023-03-20T11:54:46.890Z,15.70
2023-03-20T11:57:41.248Z,15.70
2023-03-20T12:00:10.891Z,15.70
2023-03-20T12:02:40.809Z,15.70
2023-03-20T12:05:30.988Z,15.70
2023-03-20T12:08:15.817Z,15.70
2023-03-20T12:10:48.490Z,15.70
2023-03-20T12:13:38.622Z,15.70
2023-03-20T12:16:11.555Z,15.70
2023-03-20T12:18:54.838Z,15.70
2023-03-20T12:21:34.253Z,15.70
2023-03-20T12:24:11.806Z,15.70
2023-03-20T12:27:01.625Z,15.70
2023-03-20T12:29:41.837Z,15.70
2023-03-20T12:32:40.753Z,15.70
2023-03-20T12:35:37.962Z,15.70
2023-03-20T12:38:21.208Z,15.70
2023-03-20T12:40:53.176Z,15.70
2023-03-20T12:43:27.356Z,15.70
2023-03-20T12:46:11.551Z,15.70
2023-03-20T12:48:49.020Z,15.70
2023-03-20T12:51:27.384Z,15.70
2023-03-20T12:54:10.504Z,15.70
2023-03-20T12:56:58.704Z,15.70
2023-03-20T12:59:53.245Z,15.70
2023-03-20T13:02:50.578Z,15.70
2023-03-20T13:05:25.528Z,15.70
2023-03-20T13:08:10.515Z,15.70
2023-03-20T13:10:40.275Z,15.70
2023-03-20T13:13:15.336Z,15.70
2023-03-20T13:15:59.297Z,15.70
2023-03-20T13:18:50.978Z,15.70
2023-03-20T13:21:29.612Z,15.70
2023-03-20T13:24:24.492Z,15.70
2023-03-20T13:27:07.978Z,15.70
2023-03-20T13:30:02.841Z,15.70
2023-03-20T13:32:54.909Z,15.70
2023-03-20T13:35:40.842Z,15.70
2023-03-20T13:38:16.789Z,15.70
2023-03-20T13:40:45.988Z,15.70
2023-03-20T13:43:21.957Z,15.70
2023-03-20T13:45:52.036Z,15.70
2023-03-20T13:48:38.790Z,15.60
2023-03-20T13:51:27.072Z,15.60
2023-03-20T13:54:16.037Z,15.60
2023-03-20T13:56:57.840Z,15.70
2023-03-20T13:59:39.010Z,15.70
2023-03-20T14:02:26.655Z,15.60
2023-03-20T14:05:02.822Z,15.60
2023-03-20T14:07:36.195Z,15.60
2023-03-20T14:10:20.850Z,15.60
2023-03-20T14:13:00.982Z,15.60
2023-03-20T14:15:33.051Z,15.60
2023-03-20T14:18:05.333Z,15.60
2023-03-20T14:20:43.113Z,15.60
2023-03-20T14:23:26.592Z,15.60
2023-03-20T14:25:55.031Z,15.60
2023-03-20T14:28:28.938Z,15.60
2023-03-20T14:31:45.451Z,15.60
2023-03-20T14:34:18.583Z,15.60
2023-03-20T14:37:05.487Z,15.60
2023-03-20T14:39:53.226Z,15.60
2023-03-20T14:42:31.020Z,15.60
2023-03-20T14:45:07.263Z,15.60
2023-03-20T14:47:56.133Z,15.60
2023-03-20T14:50:30.679Z,15.60
2023-03-20T14:53:17.728Z,15.60
2023-03-20T14:56:06.894Z,15.60
2023-03-20T14:58:39.728Z,15.60
2023-03-20T15:01:19.732Z,15.60
2023-03-20T15:04:06.729Z,15.60
2023-03-20T15:06:35.340Z,15.60
2023-03-20T15:09:07.861Z,15.60
2023-03-20T15:11:35.570Z,15.60
2023-03-20T15:14:06.026Z,15.60
2023-03-20T15:16:34.987Z,15.60
2023-03-20T15:19:17.736Z,15.60
2023-03-20T15:21:45.952Z,15.60
2023-03-20T15:24:27.582Z,15.60
2023-03-20T15:26:57.939Z,15.60
2023-03-20T15:29:25.237Z,15.60
2023-03-20T15:32:12.975Z,15.50
2023-03-20T15:34:42.004Z,15.60
2023-03-20T15:37:15.826Z,15.50
2023-03-20T15:39:45.353Z,15.50
2023-03-20T15:42:21.932Z,15.50
2023-03-20T15:44:52.053Z,15.50
2023-03-20T15:47:21.964Z,15.50
2023-03-20T15:49:57.964Z,15.50
2023-03-20T15:52:43.736Z,15.50
2023-03-20T15:55:19.733Z,15.50
2023-03-20T15:57:50.125Z,15.50
2023-03-20T16:00:24.075Z,15.50
2023-03-20T16:02:50.988Z,15.50
2023-03-20T16:05:20.366Z,15.50
2023-03-20T16:07:47.402Z,15.50
2023-03-20T16:10:24.602Z,15.50
2023-03-20T16:12:57.911Z,15.50
2023-03-20T16:15:28.982Z,15.50
2023-03-20T16:18:06.575Z,15.50
2023-03-20T16:20:40.232Z,15.50
2023-03-20T16:23:09.253Z,15.50
2023-03-20T16:25:37.333Z,15.50
2023-03-20T16:28:08.228Z,15.50
2023-03-20T16:30:36.261Z,15.50
2023-03-20T16:33:12.786Z,15.50
2023-03-20T16:35:44.406Z,15.50
2023-03-20T16:38:23.299Z,15.50
2023-03-20T16:40:58.451Z,15.50
2023-03-20T16:43:32.021Z,15.50
2023-03-20T16:46:04.971Z,15.50
2023-03-20T16:48:37.771Z,15.50
2023-03-20T16:51:20.261Z,15.50
2023-03-20T16:53:53.800Z,15.50
2023-03-20T16:56:28.157Z,15.50
2023-03-20T16:58:56.898Z,15.50
2023-03-20T17:01:27.227Z,15.50
2023-03-20T17:04:11.422Z,15.50
2023-03-20T17:06:43.436Z,15.50
2023-03-20T17:09:13.200Z,15.50
2023-03-20T17:11:47.387Z,15.50
2023-03-20T17:14:14.228Z,15.50
2023-03-20T17:16:41.203Z,15.50
2023-03-20T17:19:15.977Z,15.50
2023-03-20T17:21:44.252Z,15.50
2023-03-20T17:24:12.307Z,15.50
2023-03-20T17:26:42.088Z,15.50
2023-03-20T17:29:11.609Z,15.50
2023-03-20T17:31:38.775Z,15.60
2023-03-20T17:34:05.950Z,15.60
2023-03-20T17:36:34.677Z,15.50
2023-03-20T17:39:01.865Z,15.60
2023-03-20T17:41:29.132Z,15.60
2023-03-20T17:43:56.792Z,15.70
2023-03-20T17:46:27.759Z,15.80
2023-03-20T17:49:07.058Z,16.00
2023-03-20T17:51:34.682Z,16.20
2023-03-20T17:54:01.423Z,16.40
2023-03-20T17:56:30.145Z,16.70
2023-03-20T17:58:57.588Z,17.00
2023-03-20T18:01:24.768Z,17.30
2023-03-20T18:03:51.642Z,17.60
2023-03-20T18:06:27.086Z,18.00
2023-03-20T18:08:54.878Z,18.30
2023-03-20T18:11:21.974Z,18.50
2023-03-20T18:13:48.647Z,18.80
2023-03-20T18:16:24.284Z,19.10
2023-03-20T18:18:52.615Z,19.30
2023-03-20T18:21:19.381Z,19.50
2023-03-20T18:23:46.440Z,19.70
2023-03-20T18:26:20.170Z,19.90
2023-03-20T18:28:47.314Z,20.00
2023-03-20T18:31:18.697Z,20.10
2023-03-20T18:33:49.664Z,20.30
2023-03-20T18:36:21.584Z,20.30
2023-03-20T18:38:49.236Z,20.40
2023-03-20T18:41:16.235Z,20.50
2023-03-20T18:43:43.835Z,20.60
2023-03-20T18:46:14.364Z,20.70
2023-03-20T18:48:41.944Z,20.80
2023-03-20T18:51:08.856Z,20.80
2023-03-20T18:53:35.613Z,20.80
2023-03-20T18:56:02.428Z,20.90
2023-03-20T18:58:30.527Z,20.90
2023-03-20T19:00:59.574Z,21.00
2023-03-20T19:03:28.405Z,21.00
2023-03-20T19:05:57.727Z,21.00
2023-03-20T19:08:24.989Z,21.00
2023-03-20T19:10:51.892Z,21.00
2023-03-20T19:13:20.973Z,21.00
2023-03-20T19:15:47.968Z,21.00
2023-03-20T19:18:21.050Z,21.00
2023-03-20T19:20:48.482Z,21.10
2023-03-20T19:23:17.294Z,21.00
2023-03-20T19:25:46.898Z,21.00
2023-03-20T19:28:21.943Z,21.00
2023-03-20T19:30:52.064Z,21.00
2023-03-20T19:33:19.022Z,21.00
2023-03-20T19:36:02.374Z,20.90
2023-03-20T19:38:30.512Z,20.90
2023-03-20T19:40:58.029Z,20.90
2023-03-20T19:43:25.117Z,20.90
2023-03-20T19:45:58.034Z,20.90
2023-03-20T19:48:43.295Z,20.80
2023-03-20T19:51:22.022Z,20.80
2023-03-20T19:53:49.853Z,20.80
2023-03-20T19:56:18.187Z,20.70
2023-03-20T19:58:44.997Z,20.70
2023-03-20T20:01:16.797Z,20.70
2023-03-20T20:03:44.255Z,20.60
2023-03-20T20:06:11.001Z,20.60
2023-03-20T20:08:48.988Z,20.60
2023-03-20T20:11:20.582Z,20.50
2023-03-20T20:14:04.734Z,20.50
2023-03-20T20:16:32.377Z,20.40
2023-03-20T20:18:59.132Z,20.40
2023-03-20T20:22:13.194Z,20.30
2023-03-20T20:24:12.799Z,20.30
2023-03-20T20:26:47.850Z,20.30
2023-03-20T20:29:20.284Z,20.30
2023-03-20T20:31:47.061Z,20.20
2023-03-20T20:39:47.461Z,20.10
2023-03-20T20:42:14.538Z,20.00
2023-03-20T20:44:41.683Z,20.00
2023-03-20T20:47:09.056Z,19.90
2023-03-20T20:49:36.244Z,19.90
2023-03-20T20:52:03.666Z,19.80
2023-03-20T20:54:30.599Z,19.80
2023-03-20T20:56:57.326Z,19.80
2023-03-20T20:59:24.055Z,19.70
2023-03-20T21:01:51.000Z,19.70
2023-03-20T21:04:17.963Z,19.60
2023-03-20T21:07:08.613Z,19.60
2023-03-20T21:09:50.815Z,19.60
2023-03-20T21:12:34.829Z,19.50
2023-03-20T21:15:05.077Z,19.40
2023-03-20T21:17:53.802Z,19.40
2023-03-20T21:21:04.309Z,19.40
2023-03-20T21:23:38.375Z,19.30
2023-03-20T21:26:11.687Z,19.30
2023-03-20T21:29:01.155Z,19.20
2023-03-20T21:31:31.477Z,19.20
2023-03-20T21:33:59.119Z,19.20
2023-03-20T21:36:32.471Z,19.10
2023-03-20T21:39:09.070Z,19.10
2023-03-20T21:41:48.267Z,19.00
2023-03-20T21:44:19.778Z,19.00
2023-03-20T21:47:55.794Z,18.90
2023-03-20T21:50:38.382Z,18.90
2023-03-20T21:56:17.023Z,18.90
2023-03-20T21:58:50.987Z,18.80
2023-03-20T22:04:31.886Z,18.70
2023-03-20T22:12:52.988Z,18.60
2023-03-20T22:26:55.165Z,18.50
2023-03-20T22:35:04.352Z,18.40
2023-03-20T22:37:54.117Z,18.30
2023-03-20T22:40:59.318Z,18.30
2023-03-20T22:45:37.869Z,18.20
2023-03-20T22:48:10.828Z,18.20
2023-03-20T22:50:39.105Z,18.20
2023-03-20T22:53:06.102Z,18.20
2023-03-20T22:55:32.830Z,18.20
2023-03-20T22:58:06.712Z,18.10
2023-03-20T23:00:35.655Z,18.10
2023-03-20T23:03:17.262Z,18.10
2023-03-20T23:05:50.442Z,18.00
2023-03-20T23:08:17.960Z,18.00
2023-03-20T23:10:46.601Z,18.00
2023-03-20T23:13:14.324Z,18.00
2023-03-20T23:15:41.458Z,18.00
2023-03-20T23:18:09.697Z,17.90
2023-03-20T23:20:36.769Z,17.90
2023-03-20T23:23:03.843Z,17.90
2023-03-20T23:25:39.209Z,17.90
2023-03-20T23:28:08.958Z,17.90
2023-03-20T23:31:03.401Z,17.80
2023-03-20T23:33:23.083Z,17.80
2023-03-20T23:36:01.214Z,17.80
2023-03-20T23:38:31.902Z,17.80
2023-03-20T23:40:58.631Z,17.80
2023-03-20T23:43:25.562Z,17.70
2023-03-20T23:45:52.302Z,17.70
2023-03-20T23:48:19.302Z,17.70
2023-03-20T23:50:53.440Z,17.70
2023-03-20T23:53:21.365Z,17.70
2023-03-20T23:55:50.774Z,17.60
2023-03-20T23:58:18.057Z,17.60
